sensor_id;sensor_type;location;lat;lon;timestamp;pressure;altitude;pressure_sealevel;temperature;humidity
60417;BME280;46263;44.726;10.396;2023-01-25T00:02:06;101790.06;;;8.90;74.25
60417;BME280;46263;44.726;10.396;2023-01-25T00:04:31;101792.97;;;8.95;74.52
60417;BME280;46263;44.726;10.396;2023-01-25T00:06:57;101791.03;;;9.01;74.24
60417;BME280;46263;44.726;10.396;2023-01-25T00:09:23;101788.94;;;8.96;74.39
60417;BME280;46263;44.726;10.396;2023-01-25T00:11:49;101781.22;;;8.91;74.44
60417;BME280;46263;44.726;10.396;2023-01-25T00:14:15;101785.16;;;8.99;74.50
60417;BME280;46263;44.726;10.396;2023-01-25T00:16:41;101780.66;;;9.02;74.37
60417;BME280;46263;44.726;10.396;2023-01-25T00:19:08;101778.34;;;9.00;74.34
60417;BME280;46263;44.726;10.396;2023-01-25T00:21:34;101768.81;;;8.92;74.70
60417;BME280;46263;44.726;10.396;2023-01-25T00:24:01;101768.50;;;8.90;74.87
60417;BME280;46263;44.726;10.396;2023-01-25T00:26:31;101771.66;;;8.83;74.96
60417;BME280;46263;44.726;10.396;2023-01-25T00:28:57;101765.81;;;8.81;75.08
60417;BME280;46263;44.726;10.396;2023-01-25T00:36:39;101764.56;;;8.82;75.42
60417;BME280;46263;44.726;10.396;2023-01-25T00:39:05;101757.84;;;8.89;75.35
60417;BME280;46263;44.726;10.396;2023-01-25T00:41:34;101761.06;;;8.96;75.20
60417;BME280;46263;44.726;10.396;2023-01-25T00:43:59;101766.34;;;9.09;74.77
60417;BME280;46263;44.726;10.396;2023-01-25T00:46:25;101764.53;;;9.06;74.59
60417;BME280;46263;44.726;10.396;2023-01-25T00:48:54;101759.31;;;9.13;74.64
60417;BME280;46263;44.726;10.396;2023-01-25T00:51:21;101756.91;;;9.06;74.65
60417;BME280;46263;44.726;10.396;2023-01-25T00:53:47;101761.91;;;9.02;74.73
60417;BME280;46263;44.726;10.396;2023-01-25T00:56:12;101757.00;;;8.97;75.01
60417;BME280;46263;44.726;10.396;2023-01-25T00:58:39;101756.72;;;8.95;75.27
60417;BME280;46263;44.726;10.396;2023-01-25T01:01:05;101752.97;;;8.98;75.22
60417;BME280;46263;44.726;10.396;2023-01-25T01:03:31;101750.53;;;8.91;75.46
60417;BME280;46263;44.726;10.396;2023-01-25T01:06:04;101756.81;;;9.01;75.41
60417;BME280;46263;44.726;10.396;2023-01-25T01:08:32;101763.53;;;8.94;75.59
60417;BME280;46263;44.726;10.396;2023-01-25T01:10:59;101761.88;;;8.88;75.75
60417;BME280;46263;44.726;10.396;2023-01-25T01:13:28;101763.91;;;8.87;75.84
60417;BME280;46263;44.726;10.396;2023-01-25T01:15:54;101749.88;;;8.82;75.63
60417;BME280;46263;44.726;10.396;2023-01-25T01:18:20;101759.28;;;8.84;75.67
60417;BME280;46263;44.726;10.396;2023-01-25T01:20:50;101756.19;;;8.82;76.04
60417;BME280;46263;44.726;10.396;2023-01-25T01:23:16;101753.47;;;8.73;76.59
60417;BME280;46263;44.726;10.396;2023-01-25T01:25:42;101755.03;;;8.74;76.43
60417;BME280;46263;44.726;10.396;2023-01-25T01:28:07;101738.28;;;8.60;76.81
60417;BME280;46263;44.726;10.396;2023-01-25T01:30:33;101741.16;;;8.66;76.99
60417;BME280;46263;44.726;10.396;2023-01-25T01:32:59;101744.53;;;8.70;76.66
60417;BME280;46263;44.726;10.396;2023-01-25T01:35:24;101737.44;;;8.69;76.82
60417;BME280;46263;44.726;10.396;2023-01-25T01:37:50;101742.50;;;8.56;76.93
60417;BME280;46263;44.726;10.396;2023-01-25T01:40:16;101733.03;;;8.76;76.85
60417;BME280;46263;44.726;10.396;2023-01-25T01:43:01;101737.16;;;8.81;76.18
60417;BME280;46263;44.726;10.396;2023-01-25T01:48:47;101735.84;;;9.05;75.42
60417;BME280;46263;44.726;10.396;2023-01-25T01:51:23;101744.22;;;9.05;75.61
60417;BME280;46263;44.726;10.396;2023-01-25T01:54:19;101746.13;;;8.99;75.43
60417;BME280;46263;44.726;10.396;2023-01-25T01:57:00;101743.50;;;8.81;76.01
60417;BME280;46263;44.726;10.396;2023-01-25T01:59:36;101740.94;;;8.92;76.09
60417;BME280;46263;44.726;10.396;2023-01-25T02:02:06;101748.81;;;8.79;76.43
60417;BME280;46263;44.726;10.396;2023-01-25T02:04:32;101741.00;;;8.83;76.29
60417;BME280;46263;44.726;10.396;2023-01-25T02:07:15;101733.03;;;8.76;76.81
60417;BME280;46263;44.726;10.396;2023-01-25T02:09:43;101737.84;;;8.76;76.67
60417;BME280;46263;44.726;10.396;2023-01-25T02:12:09;101745.91;;;8.88;76.45
60417;BME280;46263;44.726;10.396;2023-01-25T02:14:42;101737.28;;;8.86;76.12
60417;BME280;46263;44.726;10.396;2023-01-25T02:17:09;101735.81;;;8.76;76.86
60417;BME280;46263;44.726;10.396;2023-01-25T02:25:23;101743.72;;;8.92;75.92
60417;BME280;46263;44.726;10.396;2023-01-25T02:27:59;101734.59;;;9.06;75.80
60417;BME280;46263;44.726;10.396;2023-01-25T02:30:27;101741.44;;;9.05;75.91
60417;BME280;46263;44.726;10.396;2023-01-25T02:32:53;101744.72;;;9.04;75.64
60417;BME280;46263;44.726;10.396;2023-01-25T02:35:24;101733.38;;;9.07;75.58
60417;BME280;46263;44.726;10.396;2023-01-25T02:37:50;101736.16;;;9.07;75.77
60417;BME280;46263;44.726;10.396;2023-01-25T02:40:17;101731.25;;;9.02;75.84
60417;BME280;46263;44.726;10.396;2023-01-25T02:42:43;101732.19;;;8.99;76.04
60417;BME280;46263;44.726;10.396;2023-01-25T02:45:12;101731.38;;;9.08;75.73
60417;BME280;46263;44.726;10.396;2023-01-25T02:47:39;101728.47;;;9.17;75.36
60417;BME280;46263;44.726;10.396;2023-01-25T02:50:05;101725.28;;;9.09;75.39
60417;BME280;46263;44.726;10.396;2023-01-25T02:52:30;101724.50;;;9.09;75.33
60417;BME280;46263;44.726;10.396;2023-01-25T02:54:56;101723.19;;;9.04;75.68
60417;BME280;46263;44.726;10.396;2023-01-25T02:57:22;101723.84;;;9.14;75.60
60417;BME280;46263;44.726;10.396;2023-01-25T02:59:47;101717.97;;;9.12;75.55
60417;BME280;46263;44.726;10.396;2023-01-25T03:02:13;101722.41;;;9.04;75.52
60417;BME280;46263;44.726;10.396;2023-01-25T03:04:39;101717.78;;;9.01;75.75
60417;BME280;46263;44.726;10.396;2023-01-25T03:07:04;101718.94;;;9.09;75.80
60417;BME280;46263;44.726;10.396;2023-01-25T03:09:30;101708.56;;;9.09;75.34
60417;BME280;46263;44.726;10.396;2023-01-25T03:11:56;101714.53;;;9.02;75.90
60417;BME280;46263;44.726;10.396;2023-01-25T03:14:23;101710.56;;;8.94;76.37
60417;BME280;46263;44.726;10.396;2023-01-25T03:16:48;101708.34;;;8.98;76.15
60417;BME280;46263;44.726;10.396;2023-01-25T03:19:14;101706.53;;;8.95;75.61
60417;BME280;46263;44.726;10.396;2023-01-25T03:21:40;101696.03;;;8.90;76.15
60417;BME280;46263;44.726;10.396;2023-01-25T03:24:07;101704.31;;;8.99;76.12
60417;BME280;46263;44.726;10.396;2023-01-25T03:26:34;101703.94;;;9.06;75.92
60417;BME280;46263;44.726;10.396;2023-01-25T03:29:19;101688.00;;;9.07;75.92
60417;BME280;46263;44.726;10.396;2023-01-25T03:31:45;101698.94;;;9.10;75.79
60417;BME280;46263;44.726;10.396;2023-01-25T03:34:10;101683.28;;;9.13;75.84
60417;BME280;46263;44.726;10.396;2023-01-25T03:36:36;101682.78;;;9.14;75.34
60417;BME280;46263;44.726;10.396;2023-01-25T03:39:02;101676.81;;;9.21;75.26
60417;BME280;46263;44.726;10.396;2023-01-25T03:41:27;101670.28;;;9.24;74.99
60417;BME280;46263;44.726;10.396;2023-01-25T03:43:53;101669.63;;;9.00;75.31
60417;BME280;46263;44.726;10.396;2023-01-25T03:46:18;101665.88;;;9.03;75.69
60417;BME280;46263;44.726;10.396;2023-01-25T03:48:44;101669.31;;;8.98;75.89
60417;BME280;46263;44.726;10.396;2023-01-25T03:51:09;101664.91;;;9.06;75.77
60417;BME280;46263;44.726;10.396;2023-01-25T03:53:35;101658.88;;;9.08;75.73
60417;BME280;46263;44.726;10.396;2023-01-25T03:56:04;101661.84;;;9.04;75.67
60417;BME280;46263;44.726;10.396;2023-01-25T03:58:33;101665.78;;;9.12;75.79
60417;BME280;46263;44.726;10.396;2023-01-25T04:00:59;101669.81;;;9.11;75.66
60417;BME280;46263;44.726;10.396;2023-01-25T04:03:27;101666.63;;;9.04;75.16
60417;BME280;46263;44.726;10.396;2023-01-25T04:05:54;101660.31;;;9.03;75.55
60417;BME280;46263;44.726;10.396;2023-01-25T04:08:20;101661.66;;;9.08;75.81
60417;BME280;46263;44.726;10.396;2023-01-25T04:11:03;101663.25;;;9.14;75.56
60417;BME280;46263;44.726;10.396;2023-01-25T04:13:29;101665.66;;;9.21;75.16
60417;BME280;46263;44.726;10.396;2023-01-25T04:15:56;101671.06;;;9.25;75.07
60417;BME280;46263;44.726;10.396;2023-01-25T04:18:21;101662.41;;;9.23;75.23
60417;BME280;46263;44.726;10.396;2023-01-25T04:20:54;101657.22;;;9.16;75.18
60417;BME280;46263;44.726;10.396;2023-01-25T04:23:20;101655.28;;;9.22;75.10
60417;BME280;46263;44.726;10.396;2023-01-25T04:26:00;101651.25;;;9.23;75.08
60417;BME280;46263;44.726;10.396;2023-01-25T04:28:26;101656.63;;;9.26;74.94
60417;BME280;46263;44.726;10.396;2023-01-25T04:30:54;101646.63;;;9.34;74.50
60417;BME280;46263;44.726;10.396;2023-01-25T04:33:19;101649.72;;;9.36;74.56
60417;BME280;46263;44.726;10.396;2023-01-25T04:35:45;101658.06;;;9.36;74.17
60417;BME280;46263;44.726;10.396;2023-01-25T04:38:11;101659.31;;;9.35;74.44
60417;BME280;46263;44.726;10.396;2023-01-25T04:40:37;101654.22;;;9.34;74.57
60417;BME280;46263;44.726;10.396;2023-01-25T04:43:04;101652.75;;;9.38;74.35
60417;BME280;46263;44.726;10.396;2023-01-25T04:45:31;101663.72;;;9.42;74.30
60417;BME280;46263;44.726;10.396;2023-01-25T04:48:02;101656.81;;;9.37;74.56
60417;BME280;46263;44.726;10.396;2023-01-25T04:50:28;101658.13;;;9.42;74.37
60417;BME280;46263;44.726;10.396;2023-01-25T04:52:54;101652.75;;;9.38;74.39
60417;BME280;46263;44.726;10.396;2023-01-25T04:55:20;101642.97;;;9.28;74.84
60417;BME280;46263;44.726;10.396;2023-01-25T04:57:49;101636.63;;;9.28;74.80
60417;BME280;46263;44.726;10.396;2023-01-25T05:00:16;101635.28;;;9.23;74.98
60417;BME280;46263;44.726;10.396;2023-01-25T05:02:41;101648.66;;;9.19;75.26
60417;BME280;46263;44.726;10.396;2023-01-25T05:05:07;101644.13;;;9.22;75.05
60417;BME280;46263;44.726;10.396;2023-01-25T05:07:33;101634.31;;;9.26;74.82
60417;BME280;46263;44.726;10.396;2023-01-25T05:09:59;101639.91;;;9.26;75.04
60417;BME280;46263;44.726;10.396;2023-01-25T05:12:24;101641.03;;;9.34;75.00
60417;BME280;46263;44.726;10.396;2023-01-25T05:14:50;101648.16;;;9.35;74.74
60417;BME280;46263;44.726;10.396;2023-01-25T05:17:15;101647.66;;;9.37;74.69
60417;BME280;46263;44.726;10.396;2023-01-25T05:19:41;101642.09;;;9.37;74.49
60417;BME280;46263;44.726;10.396;2023-01-25T05:22:12;101650.84;;;9.44;74.49
60417;BME280;46263;44.726;10.396;2023-01-25T05:24:38;101641.41;;;9.42;74.42
60417;BME280;46263;44.726;10.396;2023-01-25T05:27:07;101642.19;;;9.42;74.60
60417;BME280;46263;44.726;10.396;2023-01-25T05:29:41;101635.34;;;9.43;74.24
60417;BME280;46263;44.726;10.396;2023-01-25T05:32:21;101634.66;;;9.48;74.48
60417;BME280;46263;44.726;10.396;2023-01-25T05:34:47;101625.34;;;9.51;74.33
60417;BME280;46263;44.726;10.396;2023-01-25T05:37:15;101618.94;;;9.31;74.82
60417;BME280;46263;44.726;10.396;2023-01-25T05:39:41;101624.91;;;9.09;75.59
60417;BME280;46263;44.726;10.396;2023-01-25T05:42:14;101624.13;;;9.09;75.33
60417;BME280;46263;44.726;10.396;2023-01-25T05:44:40;101629.34;;;9.16;75.36
60417;BME280;46263;44.726;10.396;2023-01-25T05:47:06;101627.22;;;9.11;75.69
60417;BME280;46263;44.726;10.396;2023-01-25T05:49:34;101636.63;;;9.13;75.48
60417;BME280;46263;44.726;10.396;2023-01-25T05:51:59;101632.97;;;9.07;75.53
60417;BME280;46263;44.726;10.396;2023-01-25T05:54:25;101637.72;;;9.01;75.65
60417;BME280;46263;44.726;10.396;2023-01-25T05:56:50;101636.56;;;9.08;75.42
60417;BME280;46263;44.726;10.396;2023-01-25T05:59:16;101639.63;;;9.10;75.32
60417;BME280;46263;44.726;10.396;2023-01-25T06:01:42;101635.88;;;9.13;75.16
60417;BME280;46263;44.726;10.396;2023-01-25T06:04:12;101634.81;;;9.10;75.64
60417;BME280;46263;44.726;10.396;2023-01-25T06:06:38;101639.41;;;9.13;75.29
60417;BME280;46263;44.726;10.396;2023-01-25T06:09:04;101636.06;;;9.09;75.63
60417;BME280;46263;44.726;10.396;2023-01-25T06:11:29;101635.28;;;9.09;75.68
60417;BME280;46263;44.726;10.396;2023-01-25T06:13:55;101627.50;;;9.13;75.45
60417;BME280;46263;44.726;10.396;2023-01-25T06:16:21;101628.19;;;9.08;75.49
60417;BME280;46263;44.726;10.396;2023-01-25T06:18:46;101630.19;;;9.07;75.50
60417;BME280;46263;44.726;10.396;2023-01-25T06:21:12;101632.44;;;9.03;75.29
60417;BME280;46263;44.726;10.396;2023-01-25T06:23:38;101628.00;;;9.11;75.32
60417;BME280;46263;44.726;10.396;2023-01-25T06:26:06;101629.16;;;9.05;75.28
60417;BME280;46263;44.726;10.396;2023-01-25T06:28:35;101631.19;;;9.04;75.26
60417;BME280;46263;44.726;10.396;2023-01-25T06:31:09;101622.22;;;9.00;75.60
60417;BME280;46263;44.726;10.396;2023-01-25T06:33:36;101629.72;;;8.94;75.97
60417;BME280;46263;44.726;10.396;2023-01-25T06:36:12;101631.63;;;9.03;75.87
60417;BME280;46263;44.726;10.396;2023-01-25T06:38:38;101637.03;;;9.06;75.60
60417;BME280;46263;44.726;10.396;2023-01-25T06:41:06;101638.47;;;9.02;75.93
60417;BME280;46263;44.726;10.396;2023-01-25T06:43:33;101633.78;;;9.08;75.23
60417;BME280;46263;44.726;10.396;2023-01-25T06:46:04;101631.84;;;8.99;75.60
60417;BME280;46263;44.726;10.396;2023-01-25T06:48:31;101633.38;;;9.00;75.81
60417;BME280;46263;44.726;10.396;2023-01-25T06:51:01;101631.06;;;8.99;75.88
60417;BME280;46263;44.726;10.396;2023-01-25T06:53:29;101630.28;;;8.98;75.48
60417;BME280;46263;44.726;10.396;2023-01-25T06:56:00;101626.06;;;8.88;75.63
60417;BME280;46263;44.726;10.396;2023-01-25T06:58:27;101627.50;;;8.98;76.03
60417;BME280;46263;44.726;10.396;2023-01-25T07:00:53;101628.38;;;9.04;75.46
60417;BME280;46263;44.726;10.396;2023-01-25T07:03:19;101629.53;;;9.12;76.41
60417;BME280;46263;44.726;10.396;2023-01-25T07:05:44;101621.84;;;9.07;76.87
60417;BME280;46263;44.726;10.396;2023-01-25T07:08:10;101628.84;;;9.03;76.32
60417;BME280;46263;44.726;10.396;2023-01-25T07:10:36;101618.56;;;9.09;76.66
60417;BME280;46263;44.726;10.396;2023-01-25T07:13:01;101618.66;;;9.14;77.15
60417;BME280;46263;44.726;10.396;2023-01-25T07:15:27;101626.25;;;8.99;76.55
60417;BME280;46263;44.726;10.396;2023-01-25T07:17:53;101627.59;;;9.04;77.23
60417;BME280;46263;44.726;10.396;2023-01-25T07:20:18;101625.59;;;9.04;76.81
60417;BME280;46263;44.726;10.396;2023-01-25T07:22:44;101625.13;;;9.06;77.11
60417;BME280;46263;44.726;10.396;2023-01-25T07:25:10;101632.03;;;9.10;77.99
60417;BME280;46263;44.726;10.396;2023-01-25T07:27:35;101632.59;;;9.14;77.46
60417;BME280;46263;44.726;10.396;2023-01-25T07:30:01;101622.97;;;9.01;76.83
60417;BME280;46263;44.726;10.396;2023-01-25T07:32:27;101628.38;;;9.04;76.29
60417;BME280;46263;44.726;10.396;2023-01-25T07:34:53;101635.13;;;8.98;75.96
60417;BME280;46263;44.726;10.396;2023-01-25T07:37:19;101634.81;;;8.81;76.68
60417;BME280;46263;44.726;10.396;2023-01-25T07:39:44;101643.75;;;8.85;76.94
60417;BME280;46263;44.726;10.396;2023-01-25T07:42:13;101640.88;;;8.94;76.78
60417;BME280;46263;44.726;10.396;2023-01-25T07:44:39;101639.81;;;9.06;76.90
60417;BME280;46263;44.726;10.396;2023-01-25T07:47:10;101644.34;;;9.04;76.17
60417;BME280;46263;44.726;10.396;2023-01-25T07:49:35;101640.97;;;8.85;76.87
60417;BME280;46263;44.726;10.396;2023-01-25T07:52:01;101643.38;;;8.92;76.27
60417;BME280;46263;44.726;10.396;2023-01-25T07:54:26;101640.19;;;8.99;76.34
60417;BME280;46263;44.726;10.396;2023-01-25T07:56:52;101630.09;;;9.02;76.07
60417;BME280;46263;44.726;10.396;2023-01-25T07:59:17;101628.19;;;9.08;75.52
60417;BME280;46263;44.726;10.396;2023-01-25T08:01:43;101620.03;;;9.04;75.77
60417;BME280;46263;44.726;10.396;2023-01-25T08:04:09;101628.09;;;9.02;76.23
60417;BME280;46263;44.726;10.396;2023-01-25T08:06:36;101622.81;;;9.04;76.16
60417;BME280;46263;44.726;10.396;2023-01-25T08:09:12;101618.38;;;8.98;76.13
60417;BME280;46263;44.726;10.396;2023-01-25T08:11:38;101630.88;;;8.88;76.28
60417;BME280;46263;44.726;10.396;2023-01-25T08:14:04;101621.16;;;8.83;77.23
60417;BME280;46263;44.726;10.396;2023-01-25T08:16:48;101630.69;;;8.91;76.56
60417;BME280;46263;44.726;10.396;2023-01-25T08:19:13;101634.06;;;8.95;76.43
60417;BME280;46263;44.726;10.396;2023-01-25T08:21:40;101630.19;;;8.93;76.24
60417;BME280;46263;44.726;10.396;2023-01-25T08:24:06;101632.69;;;9.05;76.15
60417;BME280;46263;44.726;10.396;2023-01-25T08:26:36;101625.56;;;9.19;75.77
60417;BME280;46263;44.726;10.396;2023-01-25T08:29:03;101627.22;;;9.11;75.93
60417;BME280;46263;44.726;10.396;2023-01-25T08:31:31;101629.41;;;9.21;75.51
60417;BME280;46263;44.726;10.396;2023-01-25T08:33:58;101622.59;;;9.22;75.42
60417;BME280;46263;44.726;10.396;2023-01-25T08:36:24;101625.47;;;9.13;75.50
60417;BME280;46263;44.726;10.396;2023-01-25T08:38:54;101624.06;;;9.03;75.77
60417;BME280;46263;44.726;10.396;2023-01-25T08:41:20;101623.56;;;9.05;75.93
60417;BME280;46263;44.726;10.396;2023-01-25T08:43:46;101634.72;;;9.05;76.49
60417;BME280;46263;44.726;10.396;2023-01-25T08:46:14;101629.91;;;9.05;76.45
60417;BME280;46263;44.726;10.396;2023-01-25T08:48:40;101628.19;;;9.08;76.39
60417;BME280;46263;44.726;10.396;2023-01-25T08:51:11;101630.38;;;9.18;75.60
60417;BME280;46263;44.726;10.396;2023-01-25T08:53:38;101627.28;;;9.31;75.79
60417;BME280;46263;44.726;10.396;2023-01-25T08:56:05;101621.03;;;9.36;75.86
60417;BME280;46263;44.726;10.396;2023-01-25T08:58:31;101618.72;;;9.34;75.89
60417;BME280;46263;44.726;10.396;2023-01-25T09:01:04;101612.53;;;9.45;75.41
60417;BME280;46263;44.726;10.396;2023-01-25T09:03:30;101607.16;;;9.41;74.87
60417;BME280;46263;44.726;10.396;2023-01-25T09:05:56;101610.91;;;9.38;74.29
60417;BME280;46263;44.726;10.396;2023-01-25T09:08:22;101611.91;;;9.35;74.96
60417;BME280;46263;44.726;10.396;2023-01-25T09:10:48;101599.31;;;9.25;74.96
60417;BME280;46263;44.726;10.396;2023-01-25T09:13:13;101594.28;;;9.29;74.74
60417;BME280;46263;44.726;10.396;2023-01-25T09:15:39;101596.72;;;9.22;75.30
60417;BME280;46263;44.726;10.396;2023-01-25T09:18:05;101594.44;;;9.20;75.28
60417;BME280;46263;44.726;10.396;2023-01-25T09:20:31;101596.94;;;9.18;75.50
60417;BME280;46263;44.726;10.396;2023-01-25T09:22:56;101583.72;;;9.33;75.23
60417;BME280;46263;44.726;10.396;2023-01-25T09:25:22;101593.50;;;9.43;75.31
60417;BME280;46263;44.726;10.396;2023-01-25T09:27:49;101594.25;;;9.44;75.01
60417;BME280;46263;44.726;10.396;2023-01-25T09:30:19;101601.88;;;9.43;74.80
60417;BME280;46263;44.726;10.396;2023-01-25T09:32:48;101612.13;;;9.51;74.54
60417;BME280;46263;44.726;10.396;2023-01-25T09:35:14;101605.09;;;9.56;74.17
60417;BME280;46263;44.726;10.396;2023-01-25T09:37:39;101594.09;;;9.67;73.85
60417;BME280;46263;44.726;10.396;2023-01-25T09:40:08;101599.00;;;9.72;73.83
60417;BME280;46263;44.726;10.396;2023-01-25T09:45:29;101589.72;;;9.46;72.46
60417;BME280;46263;44.726;10.396;2023-01-25T09:48:26;101599.72;;;9.52;69.88
60417;BME280;46263;44.726;10.396;2023-01-25T09:51:14;101592.28;;;9.64;70.83
60417;BME280;46263;44.726;10.396;2023-01-25T09:53:53;101593.69;;;9.74;71.11
60417;BME280;46263;44.726;10.396;2023-01-25T09:58:51;101590.63;;;9.92;72.29
60417;BME280;46263;44.726;10.396;2023-01-25T10:01:50;101586.44;;;9.82;71.55
60417;BME280;46263;44.726;10.396;2023-01-25T10:04:41;101582.53;;;9.94;72.11
60417;BME280;46263;44.726;10.396;2023-01-25T10:07:18;101580.44;;;9.89;72.49
60417;BME280;46263;44.726;10.396;2023-01-25T10:10:10;101578.97;;;9.93;71.46
60417;BME280;46263;44.726;10.396;2023-01-25T10:12:39;101580.72;;;10.11;70.83
60417;BME280;46263;44.726;10.396;2023-01-25T10:15:28;101573.19;;;10.17;70.58
60417;BME280;46263;44.726;10.396;2023-01-25T10:18:05;101574.53;;;10.21;70.34
60417;BME280;46263;44.726;10.396;2023-01-25T10:20:44;101559.41;;;10.33;70.12
60417;BME280;46263;44.726;10.396;2023-01-25T10:26:10;101556.66;;;10.38;70.29
60417;BME280;46263;44.726;10.396;2023-01-25T10:29:11;101543.28;;;10.48;67.50
60417;BME280;46263;44.726;10.396;2023-01-25T10:31:53;101545.69;;;10.60;67.80
60417;BME280;46263;44.726;10.396;2023-01-25T10:34:22;101548.09;;;10.73;67.74
60417;BME280;46263;44.726;10.396;2023-01-25T10:36:57;101548.34;;;10.69;65.96
60417;BME280;46263;44.726;10.396;2023-01-25T10:39:25;101541.75;;;10.72;66.65
60417;BME280;46263;44.726;10.396;2023-01-25T10:41:57;101537.94;;;10.75;67.98
60417;BME280;46263;44.726;10.396;2023-01-25T10:44:26;101531.22;;;10.87;67.71
60417;BME280;46263;44.726;10.396;2023-01-25T10:47:14;101532.28;;;10.95;66.96
60417;BME280;46263;44.726;10.396;2023-01-25T10:49:56;101515.78;;;10.97;67.09
60417;BME280;46263;44.726;10.396;2023-01-25T10:52:24;101514.28;;;11.02;67.02
60417;BME280;46263;44.726;10.396;2023-01-25T10:57:41;101500.66;;;11.20;66.37
60417;BME280;46263;44.726;10.396;2023-01-25T11:02:46;101483.13;;;11.25;64.06
60417;BME280;46263;44.726;10.396;2023-01-25T11:07:47;101483.72;;;11.40;65.15
60417;BME280;46263;44.726;10.396;2023-01-25T11:10:39;101480.44;;;11.41;64.27
60417;BME280;46263;44.726;10.396;2023-01-25T11:18:28;101459.56;;;11.37;62.97
60417;BME280;46263;44.726;10.396;2023-01-25T11:23:27;101447.63;;;11.42;64.26
60417;BME280;46263;44.726;10.396;2023-01-25T11:25:53;101447.09;;;11.38;64.60
60417;BME280;46263;44.726;10.396;2023-01-25T11:28:22;101431.81;;;11.39;65.71
60417;BME280;46263;44.726;10.396;2023-01-25T11:30:51;101433.34;;;11.40;65.09
60417;BME280;46263;44.726;10.396;2023-01-25T11:33:19;101433.63;;;11.42;64.87
60417;BME280;46263;44.726;10.396;2023-01-25T11:36:19;101424.53;;;11.58;66.47
60417;BME280;46263;44.726;10.396;2023-01-25T11:47:26;101407.59;;;11.99;64.20
60417;BME280;46263;44.726;10.396;2023-01-25T11:53:03;101403.00;;;12.02;61.63
60417;BME280;46263;44.726;10.396;2023-01-25T11:55:45;101385.44;;;12.18;63.41
60417;BME280;46263;44.726;10.396;2023-01-25T12:01:12;101388.75;;;12.16;62.62
60417;BME280;46263;44.726;10.396;2023-01-25T12:07:28;101378.84;;;12.21;61.64
60417;BME280;46263;44.726;10.396;2023-01-25T12:12:46;101367.09;;;12.22;62.90
60417;BME280;46263;44.726;10.396;2023-01-25T12:26:47;101346.72;;;12.00;61.75
60417;BME280;46263;44.726;10.396;2023-01-25T12:29:26;101348.00;;;12.04;61.71
60417;BME280;46263;44.726;10.396;2023-01-25T12:32:01;101334.75;;;11.99;61.32
60417;BME280;46263;44.726;10.396;2023-01-25T12:34:34;101336.31;;;12.11;61.09
60417;BME280;46263;44.726;10.396;2023-01-25T12:37:06;101337.31;;;12.03;60.76
60417;BME280;46263;44.726;10.396;2023-01-25T12:39:44;101328.16;;;12.02;61.74
60417;BME280;46263;44.726;10.396;2023-01-25T12:42:34;101328.63;;;11.95;61.11
60417;BME280;46263;44.726;10.396;2023-01-25T12:45:32;101327.13;;;11.94;61.99
60417;BME280;46263;44.726;10.396;2023-01-25T12:48:03;101327.38;;;11.86;60.48
60417;BME280;46263;44.726;10.396;2023-01-25T12:50:45;101316.66;;;11.73;60.55
60417;BME280;46263;44.726;10.396;2023-01-25T12:55:54;101304.94;;;11.69;60.61
60417;BME280;46263;44.726;10.396;2023-01-25T12:58:52;101309.50;;;11.56;60.06
60417;BME280;46263;44.726;10.396;2023-01-25T13:07:18;101299.09;;;11.56;60.90
60417;BME280;46263;44.726;10.396;2023-01-25T13:09:50;101305.69;;;11.59;63.08
60417;BME280;46263;44.726;10.396;2023-01-25T13:12:17;101300.84;;;11.59;64.47
60417;BME280;46263;44.726;10.396;2023-01-25T13:14:42;101296.78;;;11.60;63.81
60417;BME280;46263;44.726;10.396;2023-01-25T13:17:21;101298.84;;;11.65;63.81
60417;BME280;46263;44.726;10.396;2023-01-25T13:19:48;101286.88;;;11.70;63.20
60417;BME280;46263;44.726;10.396;2023-01-25T13:27:40;101284.31;;;11.99;62.96
60417;BME280;46263;44.726;10.396;2023-01-25T13:35:30;101282.28;;;12.05;61.81
60417;BME280;46263;44.726;10.396;2023-01-25T13:40:41;101275.16;;;12.04;62.67
60417;BME280;46263;44.726;10.396;2023-01-25T13:43:18;101279.47;;;12.00;62.42
60417;BME280;46263;44.726;10.396;2023-01-25T13:45:46;101282.03;;;11.98;62.08
60417;BME280;46263;44.726;10.396;2023-01-25T13:48:17;101269.81;;;11.95;61.87
60417;BME280;46263;44.726;10.396;2023-01-25T13:50:47;101272.88;;;11.97;61.61
60417;BME280;46263;44.726;10.396;2023-01-25T13:55:45;101270.06;;;11.97;61.82
60417;BME280;46263;44.726;10.396;2023-01-25T14:00:49;101265.25;;;11.98;62.52
60417;BME280;46263;44.726;10.396;2023-01-25T14:03:16;101263.44;;;12.00;61.76
60417;BME280;46263;44.726;10.396;2023-01-25T14:05:49;101264.97;;;12.01;62.56
60417;BME280;46263;44.726;10.396;2023-01-25T14:08:18;101262.41;;;12.03;63.48
60417;BME280;46263;44.726;10.396;2023-01-25T14:10:44;101256.06;;;12.03;61.02
60417;BME280;46263;44.726;10.396;2023-01-25T14:13:13;101256.31;;;11.99;61.28
60417;BME280;46263;44.726;10.396;2023-01-25T14:15:39;101253.78;;;12.01;61.75
60417;BME280;46263;44.726;10.396;2023-01-25T14:18:13;101260.91;;;12.02;60.84
60417;BME280;46263;44.726;10.396;2023-01-25T14:20:42;101260.38;;;11.98;61.84
60417;BME280;46263;44.726;10.396;2023-01-25T14:23:28;101260.38;;;11.98;61.32
60417;BME280;46263;44.726;10.396;2023-01-25T14:25:55;101256.56;;;11.96;60.81
60417;BME280;46263;44.726;10.396;2023-01-25T14:28:28;101262.44;;;11.93;61.14
60417;BME280;46263;44.726;10.396;2023-01-25T14:30:56;101260.16;;;11.91;61.26
60417;BME280;46263;44.726;10.396;2023-01-25T14:35:49;101252.75;;;11.83;61.21
60417;BME280;46263;44.726;10.396;2023-01-25T14:38:27;101251.50;;;11.84;61.15
60417;BME280;46263;44.726;10.396;2023-01-25T14:40:59;101249.97;;;11.83;61.64